Terminal Aerodrome Forecast
Issued by NWS Twin Cities, MN

Home | Current Version | Previous Version | Text Only | Print | Product List | Glossary On
Versions: 1 2 3 4 5 6 7 8 9 10 11 12 13 14 15 16 17
362
FTUS43 KMPX 260520
TAFEAU
TAF
KEAU 260520Z 2606/2706 28013KT P6SM SCT070
     FM261200 28012G20KT P6SM SCT030
     FM261500 29018G28KT P6SM BKN040
     FM270000 28008KT P6SM OVC050=

USA.gov is the U.S. government's official web portal to all federal, state and local government web resources and services.